CDT,Max TemperatureF,Mean TemperatureF,Min TemperatureF,Max Dew PointF,MeanDew PointF,Min DewpointF,Max Humidity, Mean Humidity, Min Humidity, Max Sea Level PressureIn, Mean Sea Level PressureIn, Min Sea Level PressureIn, Max VisibilityMiles, Mean VisibilityMiles, Min VisibilityMiles, Max Wind SpeedMPH, Mean Wind SpeedMPH, Max Gust SpeedMPH,PrecipitationIn, CloudCover, Events, WindDirDegrees
2013-5-1,51,44,33,42,36,32,96,88,52,30.44,30.24,29.96,10,6,1,21,13,30,0.89,8,Rain-Snow-Thunderstorm,360
2013-5-2,51,42,34,32,28,22,92,62,33,30.57,30.48,30.41,10,10,5,21,10,32,0.00,4,Rain,349
2013-5-3,50,40,31,30,27,23,85,60,35,30.40,30.21,30.07,10,10,10,18,8,25,0.00,2,,350
2013-5-4,43,40,36,39,36,31,94,87,66,30.16,30.08,30.02,10,8,2,20,12,29,0.02,8,Rain,351
2013-5-5,55,48,41,46,42,39,93,84,71,30.19,30.15,30.12,10,10,5,14,9,16,0.00,7,Rain,333
2013-5-6,68,53,39,48,44,38,96,74,42,30.17,30.12,30.04,10,9,4,7,3,,0.00,4,,339
2013-5-7,72,57,42,57,50,40,97,75,43,30.08,30.03,29.96,10,7,0,15,2,21,0.45,4,Fog-Rain,127
2013-5-8,63,60,55,58,56,52,92,83,75,29.99,29.95,29.92,10,9,3,8,4,,0.10,7,Rain-Thunderstorm,94
2013-5-9,65,58,52,56,54,51,94,86,72,30.03,29.95,29.89,10,6,0,14,5,22,0.06,7,Fog-Thunderstorm,345
2013-5-10,69,58,48,51,47,41,91,71,36,30.12,30.06,30.01,10,9,2,13,7,18,0.00,4,,338
2013-5-11,59,50,40,47,29,17,87,44,20,30.29,30.22,30.04,10,10,10,28,10,37,0.00,0,,327
2013-5-12,65,48,31,32,25,18,82,42,18,30.29,30.21,30.11,10,10,10,6,2,,0.00,1,,161
2013-5-13,84,67,50,51,40,30,66,40,18,30.11,29.98,29.83,10,10,10,20,9,28,0.00,0,,174
2013-5-14,100,79,58,57,45,32,84,38,9,29.85,29.73,29.62,10,10,10,23,6,32,0.00,0,,203
2013-5-15,84,72,61,45,38,28,52,31,13,29.95,29.87,29.80,10,10,10,17,6,25,0.03,0,,62
2013-5-16,85,71,58,64,57,45,81,62,38,29.89,29.83,29.77,10,10,10,16,5,22,0.00,4,Rain,112
2013-5-17,87,76,65,63,60,59,84,60,39,29.90,29.85,29.81,10,10,10,15,7,22,0.00,0,,172
2013-5-18,84,72,61,67,64,60,95,70,49,29.90,29.82,29.70,10,10,4,21,10,31,0.35,3,Rain-Thunderstorm,137
2013-5-19,76,67,58,70,63,57,100,90,68,29.79,29.64,29.51,10,10,5,25,6,41,0.32,4,Rain-Thunderstorm,133
2013-5-20,76,66,56,59,56,50,100,73,47,29.65,29.59,29.53,10,10,5,23,9,29,0.00,4,,219
2013-5-21,61,57,53,59,51,48,98,79,64,29.74,29.68,29.61,10,10,3,21,14,26,0.00,7,,266
2013-5-22,61,56,51,54,51,49,97,87,70,30.00,29.84,29.74,10,9,2,21,14,26,0.01,8,Rain,303
2013-5-23,73,62,51,51,47,42,96,66,33,30.25,30.16,30.01,10,10,5,17,9,25,0.00,4,,32
2013-5-24,75,62,50,52,48,44,81,58,41,30.29,30.19,30.02,10,10,10,23,11,31,0.00,3,Thunderstorm,128
2013-5-25,78,68,57,70,62,49,100,84,55,30.10,30.02,29.96,10,9,3,22,11,28,0.95,7,Rain-Thunderstorm,98
2013-5-26,77,69,61,70,65,61,100,91,77,29.99,29.92,29.83,10,8,1,17,11,22,0.00,5,Rain,91
2013-5-27,76,68,60,66,63,60,100,86,67,29.92,29.77,29.60,10,10,1,52,11,77,0.87,6,Rain-Thunderstorm,92
2013-5-28,78,68,60,66,63,60,100,79,59,29.75,29.70,29.66,10,9,4,12,4,17,0.00,2,Thunderstorm,36
2013-5-29,77,70,63,71,66,62,100,89,76,29.71,29.64,29.53,10,10,2,24,12,30,0.93,4,Rain-Thunderstorm,141
2013-5-30,77,69,61,64,61,54,100,82,58,29.62,29.56,29.50,10,10,4,16,10,23,0.29,4,Rain-Thunderstorm,170
2013-5-31,80,68,58,55,50,45,83,55,29,29.73,29.65,29.61,10,10,10,23,11,32,0.00,1,,239